Terminal Aerodrome Forecast
Issued by NWS Houston/Galveston, TX

Home | Current Version | Previous Version | Text Only | Print | Product List | Glossary On
Versions: 1 2 3 4 5 6 7 8 9 10 11 12 13 14 15 16 17 18 19 20 21 22 23 24 25 26 27 28 29
000
FTUS44 KHGX 052339
TAFCLL
TAF
KCLL 052339Z 0600/0624 14010G20KT P6SM VCSH SCT040 BKN100 BKN120
      TEMPO 0600/0602 6SM SHRA
     FM060200 13014KT P6SM SCT030
     FM060400 13012KT P6SM SCT009 SCT100
     FM061900 14012G22KT P6SM VCTS SCT025 BKN040CB=

USA.gov is the U.S. government's official web portal to all federal, state and local government web resources and services.